Time;durP1;ratioP1;P1;durP2;ratioP2;P2;SDS_P1;SDS_P2;PMS_P1;PMS_P2;Temp;Humidity;BMP_temperature;BMP_pressure;BME280_temperature;BME280_humidity;BME280_pressure;Samples;Min_cycle;Max_cycle;Signal;HPM_P1;HPM_P2
2023/12/19 00:02:11;;;;;;;12.17;10.87;;;;;;;21.12;31.46;96273.84;6157046;28;110267;-58
2023/12/19 00:05:14;;;;;;;11.50;10.40;;;;;;;21.12;31.57;96281.03;6154882;28;109398;-57
2023/12/19 00:08:19;;;;;;;12.07;10.87;;;;;;;21.14;31.32;96276.22;6160258;28;108834;-57
2023/12/19 00:11:22;;;;;;;12.30;11.00;;;;;;;21.13;31.04;96275.44;6159589;28;110113;-57
2023/12/19 00:14:25;;;;;;;12.70;11.50;;;;;;;21.13;31.03;96271.97;6133998;28;110304;-57
2023/12/19 00:17:28;;;;;;;13.47;12.17;;;;;;;21.12;31.07;96278.38;6158258;28;109213;-57
2023/12/19 00:20:31;;;;;;;14.53;13.13;;;;;;;21.14;30.96;96290.34;6161923;28;110169;-57
2023/12/19 00:23:36;;;;;;;14.13;12.73;;;;;;;21.14;31.05;96286.88;6160788;28;109624;-57
2023/12/19 00:26:39;;;;;;;13.57;12.30;;;;;;;21.13;31.20;96290.59;6148796;28;109024;-57
2023/12/19 00:29:42;;;;;;;14.10;12.80;;;;;;;21.12;31.36;96284.50;6161938;28;109102;-57
2023/12/19 00:32:45;;;;;;;14.43;13.07;;;;;;;21.10;30.80;96283.16;6160297;28;110455;-57
2023/12/19 00:35:48;;;;;;;14.80;13.40;;;;;;;21.09;31.16;96286.91;6160881;28;110210;-57
2023/12/19 00:38:53;;;;;;;14.73;13.33;;;;;;;21.10;31.01;96289.28;6148937;28;109788;-57
2023/12/19 00:41:56;;;;;;;13.97;12.57;;;;;;;21.12;30.98;96294.34;6161264;28;110073;-58
2023/12/19 00:44:59;;;;;;;15.03;13.20;;;;;;;21.12;30.79;96289.81;6160508;28;109146;-57
2023/12/19 00:48:02;;;;;;;16.53;14.87;;;;;;;21.14;30.97;96286.88;6155261;28;109252;-57
2023/12/19 00:51:09;;;;;;;16.13;14.63;;;;;;;21.13;31.04;96290.59;6157045;28;108975;-57
2023/12/19 00:54:14;;;;;;;15.97;14.43;;;;;;;21.13;31.00;96283.41;6161893;28;110624;-57
2023/12/19 00:57:17;;;;;;;16.10;14.50;;;;;;;21.13;31.02;96275.44;6159493;28;110082;-58
2023/12/19 01:00:20;;;;;;;16.87;15.17;;;;;;;21.13;30.94;96282.63;6149967;28;109040;-61
2023/12/19 01:03:23;;;;;;;16.50;14.80;;;;;;;21.14;31.00;96273.56;6160140;28;109167;-57
2023/12/19 01:06:27;;;;;;;16.63;15.07;;;;;;;21.13;31.11;96274.63;6159857;28;109031;-57
2023/12/19 01:09:31;;;;;;;16.80;15.20;;;;;;;21.13;31.04;96272.78;6138547;28;109248;-60
2023/12/19 01:12:35;;;;;;;17.37;15.67;;;;;;;21.13;31.08;96270.13;6139236;28;110089;-61
2023/12/19 01:15:38;;;;;;;17.90;16.20;;;;;;;21.13;31.13;96264.00;6156863;28;109020;-61
2023/12/19 01:18:41;;;;;;;17.50;15.80;;;;;;;21.10;31.10;96253.88;6157993;28;109132;-61
2023/12/19 01:21:44;;;;;;;16.53;15.03;;;;;;;21.10;31.35;96257.34;6154263;28;109911;-60
2023/12/19 01:24:48;;;;;;;17.40;15.70;;;;;;;21.10;30.85;96254.69;6154117;28;110068;-60
2023/12/19 01:27:52;;;;;;;15.80;14.33;;;;;;;21.08;31.06;96250.69;6159546;28;109203;-62
2023/12/19 01:30:55;;;;;;;17.13;15.43;;;;;;;21.07;31.12;96254.44;6160404;28;110112;-61
2023/12/19 01:33:58;;;;;;;17.17;15.50;;;;;;;21.07;31.21;96257.91;6149520;28;109017;-60
2023/12/19 01:37:01;;;;;;;17.27;15.53;;;;;;;21.06;30.95;96252.84;6155645;28;110911;-62
2023/12/19 01:40:08;;;;;;;16.53;15.03;;;;;;;21.05;31.08;96254.72;6159929;28;109150;-61
2023/12/19 01:43:22;;;;;;;17.07;15.47;;;;;;;21.04;31.25;96253.09;6161061;28;110109;-62
2023/12/19 01:46:26;;;;;;;16.90;15.30;;;;;;;21.04;31.05;96250.41;6147402;28;109466;-61
2023/12/19 01:49:29;;;;;;;16.70;15.10;;;;;;;21.05;31.08;96243.25;6159144;28;109059;-61
2023/12/19 01:52:33;;;;;;;16.60;15.10;;;;;;;21.05;31.29;96243.25;6160414;28;109022;-62
2023/12/19 01:55:39;;;;;;;16.43;14.83;;;;;;;21.04;31.00;96239.78;6154489;28;109256;-60
2023/12/19 01:58:43;;;;;;;16.30;14.70;;;;;;;21.04;30.85;96241.63;6152606;28;109271;-61
2023/12/19 02:01:47;;;;;;;16.00;14.30;;;;;;;21.03;31.37;96238.19;6159501;28;109302;-61
2023/12/19 02:04:51;;;;;;;15.07;13.67;;;;;;;21.05;30.87;96245.94;6158733;28;109462;-61
2023/12/19 02:07:54;;;;;;;15.00;13.60;;;;;;;21.04;31.09;96238.97;6147768;28;109094;-61
2023/12/19 02:10:58;;;;;;;15.73;14.23;;;;;;;21.05;30.69;96237.94;6160247;28;109116;-61
2023/12/19 02:14:02;;;;;;;14.97;13.57;;;;;;;21.04;30.76;96234.44;6145896;28;109153;-61
2023/12/19 02:17:05;;;;;;;14.93;13.47;;;;;;;21.04;30.95;96241.63;6158877;28;109185;-62
2023/12/19 02:20:09;;;;;;;15.13;13.63;;;;;;;21.03;30.68;96238.19;6149781;28;110575;-61
2023/12/19 02:23:14;;;;;;;15.13;13.73;;;;;;;21.02;30.96;96241.13;6158818;28;109035;-61
2023/12/19 02:26:17;;;;;;;14.87;13.47;;;;;;;21.02;30.79;96230.47;6159144;28;110474;-61
2023/12/19 02:29:20;;;;;;;14.63;13.23;;;;;;;21.03;30.83;96224.88;6160609;28;110935;-61
2023/12/19 02:32:23;;;;;;;15.50;14.00;;;;;;;21.00;30.96;96233.38;6149556;28;110474;-62
2023/12/19 02:35:26;;;;;;;14.50;13.10;;;;;;;21.01;31.12;96226.22;6158194;28;109226;-61
2023/12/19 02:38:31;;;;;;;14.23;12.93;;;;;;;21.02;31.03;96230.47;6158670;28;110106;-61
2023/12/19 02:41:34;;;;;;;13.90;12.40;;;;;;;21.03;30.79;96237.38;6142803;28;110048;-60
2023/12/19 02:44:37;;;;;;;14.80;13.50;;;;;;;21.03;30.93;96229.41;6149691;28;109135;-62
2023/12/19 02:47:40;;;;;;;13.60;12.30;;;;;;;21.02;30.92;96231.28;6159037;28;109252;-62
2023/12/19 02:50:43;;;;;;;14.03;12.73;;;;;;;21.04;30.77;96223.00;6159972;28;109124;-61
2023/12/19 02:53:48;;;;;;;14.63;13.20;;;;;;;21.02;30.60;96217.97;6147206;28;110233;-61
2023/12/19 02:56:51;;;;;;;14.40;13.20;;;;;;;21.02;30.67;96219.81;6158742;28;109169;-61
2023/12/19 02:59:54;;;;;;;14.13;12.83;;;;;;;21.02;30.84;96215.31;6160063;28;109507;-61
2023/12/19 03:02:58;;;;;;;14.47;13.07;;;;;;;21.01;30.59;96216.38;6159429;28;109193;-61
2023/12/19 03:06:02;;;;;;;15.00;13.47;;;;;;;21.01;30.91;96210.25;6147824;28;110104;-62
2023/12/19 03:09:07;;;;;;;14.30;12.90;;;;;;;21.00;30.88;96219.28;6161056;28;110134;-61
2023/12/19 03:12:10;;;;;;;14.37;13.07;;;;;;;21.00;30.84;96216.63;6162810;28;109928;-61
2023/12/19 03:15:13;;;;;;;14.60;13.30;;;;;;;20.99;30.52;96212.34;6150035;28;109733;-61
2023/12/19 03:18:16;;;;;;;14.33;12.93;;;;;;;20.99;30.61;96212.34;6157406;28;110246;-62
2023/12/19 03:21:19;;;;;;;15.77;14.17;;;;;;;20.99;30.59;96215.03;6163025;28;109080;-61
2023/12/19 03:24:23;;;;;;;14.87;13.47;;;;;;;20.98;30.45;96213.44;6161527;28;110110;-61
2023/12/19 03:27:27;;;;;;;16.07;14.60;;;;;;;20.97;30.72;96212.63;6151901;28;109371;-61
2023/12/19 03:30:30;;;;;;;14.97;13.50;;;;;;;20.98;30.85;96218.75;6161708;28;109379;-63
2023/12/19 03:33:33;;;;;;;15.00;13.60;;;;;;;20.96;30.70;96219.03;6161102;28;109378;-61
2023/12/19 03:36:36;;;;;;;15.90;14.50;;;;;;;20.97;30.22;96222.47;6161527;28;109038;-62
2023/12/19 03:39:41;;;;;;;16.23;14.73;;;;;;;20.96;30.21;96216.34;6152548;28;110029;-62
2023/12/19 03:42:44;;;;;;;16.37;14.90;;;;;;;20.96;30.34;96204.91;6149898;28;109318;-61
2023/12/19 03:45:47;;;;;;;16.80;15.30;;;;;;;20.97;30.32;96211.84;6161864;28;109351;-61
2023/12/19 03:48:50;;;;;;;15.90;14.40;;;;;;;20.97;30.35;96217.16;6162478;28;109239;-64
2023/12/19 03:51:54;;;;;;;16.40;14.90;;;;;;;20.97;30.65;96201.19;6149853;28;109001;-61
2023/12/19 03:54:58;;;;;;;16.70;15.13;;;;;;;20.97;30.10;96206.50;6160334;28;109185;-61
2023/12/19 03:58:01;;;;;;;17.77;16.10;;;;;;;20.98;30.28;96205.44;6162319;28;109106;-61
2023/12/19 04:01:05;;;;;;;17.20;15.70;;;;;;;21.04;29.78;96191.06;6156668;28;109362;-61
2023/12/19 04:04:08;;;;;;;15.87;14.37;;;;;;;21.05;30.03;96193.50;6153605;28;109020;-61
2023/12/19 04:07:11;;;;;;;16.67;15.17;;;;;;;21.07;29.93;96186.03;6162093;28;109082;-61
2023/12/19 04:10:16;;;;;;;17.00;15.40;;;;;;;21.09;29.82;96178.56;6160472;28;109396;-65
2023/12/19 04:13:19;;;;;;;18.50;16.70;;;;;;;21.09;30.41;96183.91;6149976;28;109247;-60
2023/12/19 04:16:22;;;;;;;15.93;14.43;;;;;;;21.17;30.07;96185.19;6147036;28;109119;-62
2023/12/19 04:19:25;;;;;;;15.77;14.27;;;;;;;21.29;30.12;96195.53;6160117;28;109216;-61
2023/12/19 04:22:28;;;;;;;17.00;15.30;;;;;;;21.43;29.92;96188.56;6157267;28;109135;-67
2023/12/19 04:25:32;;;;;;;15.77;14.17;;;;;;;21.55;30.52;96185.59;6151527;28;109078;-61
2023/12/19 04:28:36;;;;;;;16.57;15.07;;;;;;;21.62;30.94;96199.41;6161288;28;109376;-61
2023/12/19 04:31:39;;;;;;;16.97;15.27;;;;;;;21.68;30.76;96204.44;6160199;28;109348;-61
2023/12/19 04:34:43;;;;;;;16.50;15.00;;;;;;;21.71;31.35;96203.88;6155054;28;109139;-59
2023/12/19 04:37:46;;;;;;;15.67;14.07;;;;;;;21.71;31.34;96206.56;6155355;28;109052;-61
2023/12/19 04:40:50;;;;;;;15.43;14.03;;;;;;;21.76;31.62;96208.38;6161232;28;110148;-61
2023/12/19 04:43:53;;;;;;;15.57;14.00;;;;;;;21.70;31.74;96212.97;6148125;28;110132;-61
2023/12/19 04:46:56;;;;;;;14.60;13.23;;;;;;;21.68;31.92;96211.63;6148563;28;109190;-60
2023/12/19 04:49:59;;;;;;;15.27;13.67;;;;;;;21.67;31.76;96213.47;6159055;28;109372;-61
2023/12/19 04:53:03;;;;;;;15.50;13.90;;;;;;;21.66;32.07;96214.53;6160367;28;109971;-61
2023/12/19 04:56:08;;;;;;;15.67;14.17;;;;;;;21.69;31.88;96218.56;6160050;28;110514;-61
2023/12/19 04:59:11;;;;;;;16.53;14.80;;;;;;;21.73;31.44;96219.59;6149958;28;108992;-61
2023/12/19 05:02:14;;;;;;;15.00;13.60;;;;;;;21.75;31.47;96228.91;6161190;28;109249;-62
2023/12/19 05:05:17;;;;;;;14.43;13.00;;;;;;;21.74;31.32;96222.00;6159792;28;109542;-61
2023/12/19 05:08:20;;;;;;;16.80;15.10;;;;;;;21.76;31.63;96227.03;6160874;28;110237;-61
2023/12/19 05:11:25;;;;;;;15.83;14.23;;;;;;;21.72;31.65;96220.66;6144102;28;110828;-61
2023/12/19 05:14:28;;;;;;;15.57;14.07;;;;;;;21.68;31.63;96233.75;6151630;28;109335;-62
2023/12/19 05:17:31;;;;;;;15.07;13.47;;;;;;;21.66;31.13;96221.75;6158151;28;109263;-61
2023/12/19 05:20:34;;;;;;;16.37;13.87;;;;;;;21.64;31.51;96226.56;6155605;28;109882;-60
2023/12/19 05:23:38;;;;;;;16.27;13.87;;;;;;;21.60;31.34;96233.50;6148378;28;109779;-61
2023/12/19 05:26:43;;;;;;;14.90;13.50;;;;;;;21.46;31.28;96226.09;6160704;28;109094;-61
2023/12/19 05:29:46;;;;;;;15.87;13.70;;;;;;;21.43;31.33;96221.31;6160300;28;109126;-62
2023/12/19 05:32:49;;;;;;;17.60;13.83;;;;;;;21.43;31.40;96225.84;6149012;28;109111;-60
2023/12/19 05:35:52;;;;;;;15.13;13.63;;;;;;;21.41;31.26;96225.31;6136213;28;108808;-61
2023/12/19 05:38:55;;;;;;;13.77;12.37;;;;;;;21.38;31.35;96229.34;6154815;28;109099;-61
2023/12/19 05:41:59;;;;;;;14.90;13.30;;;;;;;21.35;31.33;96229.88;6159434;28;109217;-61
2023/12/19 05:45:04;;;;;;;14.07;12.57;;;;;;;21.32;31.42;96230.41;6149629;28;109154;-61
2023/12/19 05:48:07;;;;;;;14.70;13.20;;;;;;;21.28;31.25;96229.34;6160172;28;108918;-61
2023/12/19 05:51:11;;;;;;;14.93;13.53;;;;;;;21.26;31.37;96236.03;6160956;28;109890;-57
2023/12/19 05:54:14;;;;;;;18.97;13.27;;;;;;;21.22;31.58;96230.44;6156848;28;110415;-57
2023/12/19 05:57:18;;;;;;;13.40;12.13;;;;;;;21.19;31.76;96231.00;6155222;28;109427;-57
2023/12/19 06:00:22;;;;;;;14.37;12.97;;;;;;;21.17;31.41;96233.94;6160762;28;110331;-57
2023/12/19 06:03:25;;;;;;;17.10;13.50;;;;;;;21.17;31.46;96238.44;6160336;28;109064;-57
2023/12/19 06:06:28;;;;;;;14.80;13.13;;;;;;;21.15;31.51;96224.59;6150327;28;110054;-57
2023/12/19 06:09:31;;;;;;;15.07;13.67;;;;;;;21.13;31.03;96229.41;6159460;28;109092;-57
2023/12/19 06:12:36;;;;;;;15.37;13.83;;;;;;;21.16;31.29;96220.88;6159927;28;109635;-56
2023/12/19 06:15:39;;;;;;;14.90;13.50;;;;;;;21.19;31.26;96220.34;6160032;28;109316;-57
2023/12/19 06:18:42;;;;;;;15.13;13.03;;;;;;;21.15;31.34;96222.72;6148855;28;109416;-57
2023/12/19 06:21:45;;;;;;;15.63;13.90;;;;;;;21.13;31.08;96224.88;6160381;28;110010;-59
2023/12/19 06:24:50;;;;;;;14.87;13.03;;;;;;;21.13;31.13;96216.09;6160224;28;109189;-57
2023/12/19 06:27:56;;;;;;;15.73;14.23;;;;;;;21.12;31.06;96211.84;6160367;28;109434;-57
2023/12/19 06:30:59;;;;;;;16.20;14.53;;;;;;;21.12;30.84;96219.81;6148316;28;108978;-57
2023/12/19 06:34:02;;;;;;;17.60;15.73;;;;;;;21.10;30.66;96208.66;6160391;28;109288;-57
2023/12/19 06:37:06;;;;;;;17.67;15.97;;;;;;;21.10;31.23;96211.31;6159585;28;109438;-57
2023/12/19 06:40:09;;;;;;;17.40;15.80;;;;;;;21.08;30.88;96208.13;6154568;28;109153;-57
2023/12/19 06:43:14;;;;;;;19.20;17.30;;;;;;;21.11;30.84;96212.91;6156605;28;109050;-56
2023/12/19 06:46:17;;;;;;;18.77;16.90;;;;;;;21.11;30.82;96211.03;6163971;28;109028;-56
2023/12/19 06:49:21;;;;;;;18.70;16.80;;;;;;;21.07;30.75;96210.00;6164051;28;110270;-56
2023/12/19 06:52:24;;;;;;;18.50;16.60;;;;;;;21.10;30.62;96220.09;6152988;28;109793;-56
2023/12/19 06:55:30;;;;;;;19.87;17.93;;;;;;;21.10;30.52;96220.09;6164087;28;110090;-57
2023/12/19 06:58:35;;;;;;;20.33;18.50;;;;;;;21.18;30.63;96224.88;6163845;28;109031;-56
2023/12/19 07:01:39;;;;;;;20.50;18.60;;;;;;;21.62;29.71;96229.50;6164490;28;110145;-58
2023/12/19 07:04:43;;;;;;;21.33;19.27;;;;;;;21.89;29.52;96228.34;6153189;28;109198;-58
2023/12/19 07:07:47;;;;;;;22.97;20.70;;;;;;;21.99;29.54;96234.38;6163785;28;110141;-58
2023/12/19 07:10:53;;;;;;;20.83;18.93;;;;;;;21.98;29.22;96237.34;6163713;28;109218;-57
2023/12/19 07:13:57;;;;;;;21.77;19.77;;;;;;;21.67;29.63;96239.31;6158207;28;108884;-57
2023/12/19 07:17:01;;;;;;;22.17;19.80;;;;;;;21.45;30.20;96245.81;6157700;28;109073;-57
2023/12/19 07:20:07;;;;;;;22.73;20.10;;;;;;;21.34;30.51;96243.44;6163007;28;109559;-57
2023/12/19 07:23:10;;;;;;;21.97;19.73;;;;;;;21.28;30.37;96242.66;6163855;28;110122;-57
2023/12/19 07:26:20;;;;;;;23.97;21.60;;;;;;;21.26;30.48;96239.47;6152883;28;109530;-57
2023/12/19 07:29:25;;;;;;;22.30;20.00;;;;;;;21.25;30.61;96235.22;6163536;28;109445;-57
2023/12/19 07:32:28;;;;;;;21.77;19.67;;;;;;;21.26;30.12;96230.69;6163108;28;109100;-57
2023/12/19 07:35:31;;;;;;;22.20;20.10;;;;;;;21.29;30.22;96230.94;6163212;28;109411;-57
2023/12/19 07:38:35;;;;;;;21.70;19.70;;;;;;;21.26;30.05;96226.16;6152325;28;109271;-57
2023/12/19 07:41:39;;;;;;;22.43;20.20;;;;;;;21.33;29.84;96220.53;6162750;28;109181;-57
2023/12/19 07:44:43;;;;;;;21.83;19.80;;;;;;;21.42;29.97;96208.28;6162383;28;110161;-63
2023/12/19 07:47:46;;;;;;;21.43;19.33;;;;;;;21.46;30.06;96204.78;6160560;28;109440;-57
2023/12/19 07:50:51;;;;;;;22.37;20.23;;;;;;;21.49;30.21;96206.91;6149987;28;109055;-58
2023/12/19 07:53:55;;;;;;;21.93;19.83;;;;;;;21.49;29.73;96198.91;6161606;28;109077;-57
2023/12/19 07:56:59;;;;;;;22.10;20.00;;;;;;;21.52;29.60;96205.59;6162372;28;109211;-57
2023/12/19 08:00:04;;;;;;;21.97;19.87;;;;;;;21.51;29.79;96204.78;6159386;28;109018;-57
2023/12/19 08:03:07;;;;;;;22.33;20.17;;;;;;;21.48;29.74;96193.88;6157365;28;109309;-57
2023/12/19 08:06:11;;;;;;;21.73;19.73;;;;;;;21.51;30.07;96196.00;6162774;28;110905;-57
2023/12/19 08:09:15;;;;;;;22.20;20.13;;;;;;;21.49;29.65;96184.81;6160650;28;109519;-61
2023/12/19 08:12:19;;;;;;;22.33;20.23;;;;;;;21.48;29.94;96194.66;6152790;28;109875;-61
2023/12/19 08:15:24;;;;;;;21.97;19.67;;;;;;;21.48;29.76;96194.66;6160712;28;109107;-61
2023/12/19 08:18:27;;;;;;;22.40;20.40;;;;;;;21.46;30.03;96190.69;6161732;28;109582;-62
2023/12/19 08:21:32;;;;;;;22.23;20.30;;;;;;;21.44;30.03;96190.16;6162064;28;109150;-61
2023/12/19 08:24:35;;;;;;;21.47;19.20;;;;;;;21.42;29.76;96197.63;6151588;28;110009;-64
2023/12/19 08:27:38;;;;;;;23.80;21.30;;;;;;;21.42;31.09;96193.09;6162129;28;109201;-62
2023/12/19 08:30:43;;;;;;;21.70;19.70;;;;;;;21.44;29.60;96185.63;6161932;28;109007;-64
2023/12/19 08:33:46;;;;;;;21.70;19.53;;;;;;;21.42;29.96;96187.78;6162705;28;109038;-63
2023/12/19 08:36:49;;;;;;;20.03;18.10;;;;;;;21.39;30.01;96183.00;6151304;28;109440;-62
2023/12/19 08:39:56;;;;;;;20.30;18.40;;;;;;;21.40;30.06;96176.59;6162051;28;108858;-63
2023/12/19 08:42:59;;;;;;;20.90;18.97;;;;;;;21.40;30.39;96167.81;6162524;28;109331;-61
2023/12/19 08:46:04;;;;;;;20.30;18.43;;;;;;;21.36;30.40;96162.25;6152678;28;109439;-58
2023/12/19 08:49:07;;;;;;;21.00;19.00;;;;;;;21.38;30.25;96157.44;6160764;28;109149;-62
2023/12/19 08:52:11;;;;;;;21.10;19.10;;;;;;;21.37;30.52;96153.19;6161871;28;110697;-62
2023/12/19 08:55:14;;;;;;;20.80;18.90;;;;;;;21.38;30.07;96153.97;6161089;28;110031;-62
2023/12/19 08:58:17;;;;;;;20.63;18.47;;;;;;;21.36;29.91;96146.28;6150022;28;109272;-61
2023/12/19 09:01:22;;;;;;;21.00;19.10;;;;;;;21.35;30.07;96136.69;6161406;28;109411;-62
2023/12/19 09:04:25;;;;;;;20.83;18.93;;;;;;;21.37;30.31;96129.22;6160935;28;108861;-61
2023/12/19 09:07:28;;;;;;;19.27;17.57;;;;;;;21.38;30.35;96138.81;6162032;28;111934;-62
2023/12/19 09:10:31;;;;;;;20.73;18.70;;;;;;;21.39;30.57;96127.09;6150700;28;109057;-63
2023/12/19 09:13:38;;;;;;;20.60;18.80;;;;;;;21.40;29.94;96127.88;6161498;28;109144;-62
2023/12/19 09:16:44;;;;;;;20.60;18.60;;;;;;;21.42;30.38;96118.53;6160025;28;109122;-62
2023/12/19 09:19:47;;;;;;;20.87;18.87;;;;;;;21.43;30.35;96114.81;6156653;28;109070;-61
2023/12/19 09:22:50;;;;;;;20.33;18.33;;;;;;;21.45;30.09;96109.19;6155279;28;109022;-61
2023/12/19 09:25:53;;;;;;;20.50;18.53;;;;;;;21.44;30.35;96100.41;6161493;28;110090;-61
2023/12/19 09:28:56;;;;;;;20.93;18.97;;;;;;;21.44;30.18;96100.41;6161625;28;110410;-62
2023/12/19 09:32:02;;;;;;;19.70;17.80;;;;;;;21.45;30.03;96102.00;6150437;28;109084;-61
2023/12/19 09:35:06;;;;;;;20.10;18.20;;;;;;;21.43;30.29;96098.81;6160764;28;109440;-63
2023/12/19 09:38:10;;;;;;;20.90;18.80;;;;;;;21.41;30.10;96094.84;6160877;28;109282;-63
2023/12/19 09:41:13;;;;;;;20.97;18.97;;;;;;;21.43;29.84;96093.50;6160488;28;109071;-63
2023/12/19 09:44:17;;;;;;;20.60;18.70;;;;;;;21.44;30.05;96083.66;6150431;28;109260;-63
2023/12/19 09:47:31;;;;;;;20.50;18.60;;;;;;;21.48;30.28;96088.13;6159754;28;109307;-62
2023/12/19 09:50:42;;;;;;;21.60;19.50;;;;;;;21.50;30.13;96093.19;6160907;28;110434;-64
2023/12/19 09:53:49;;;;;;;21.90;19.83;;;;;;;21.50;30.05;96083.31;6156160;28;109771;-61
2023/12/19 09:56:53;;;;;;;20.33;18.47;;;;;;;21.52;30.39;96083.06;6154257;28;109421;-63
2023/12/19 09:59:59;;;;;;;21.00;18.90;;;;;;;21.51;29.94;96076.97;6160781;28;110267;-61
2023/12/19 10:03:04;;;;;;;20.73;18.83;;;;;;;21.55;29.84;96079.06;6160349;28;109291;-63
2023/12/19 10:06:09;;;;;;;20.70;18.70;;;;;;;21.55;30.12;96074.53;6149376;28;109134;-58
2023/12/19 10:09:15;;;;;;;20.17;18.20;;;;;;;21.55;30.00;96066.53;6160751;28;109218;-58
2023/12/19 10:12:18;;;;;;;20.53;18.53;;;;;;;21.54;30.38;96064.94;6139604;28;109408;-58
2023/12/19 10:15:23;;;;;;;21.97;19.77;;;;;;;21.54;30.02;96053.50;6141934;28;109036;-58
2023/12/19 10:18:28;;;;;;;20.03;18.23;;;;;;;21.54;30.33;96048.97;6152037;28;109321;-59
2023/12/19 10:21:48;;;;;;;20.60;18.70;;;;;;;21.55;30.17;96041.78;6164614;28;109189;-58
2023/12/19 10:25:01;;;;;;;19.20;17.50;;;;;;;21.54;30.13;96035.66;6164728;28;110058;-59
2023/12/19 10:28:08;;;;;;;20.27;18.37;;;;;;;21.54;29.98;96021.53;6159447;28;108985;-60
2023/12/19 10:31:15;;;;;;;18.10;16.47;;;;;;;21.56;30.16;96025.50;6158238;28;109102;-58
2023/12/19 10:34:22;;;;;;;19.23;17.43;;;;;;;21.55;30.46;96018.59;6164442;28;109311;-58
2023/12/19 10:37:28;;;;;;;18.73;16.93;;;;;;;21.56;29.97;96008.75;6164100;28;109268;-58
2023/12/19 10:40:45;;;;;;;19.20;17.37;;;;;;;21.55;30.16;95999.94;6154291;28;109355;-58
2023/12/19 10:43:50;;;;;;;18.33;16.70;;;;;;;21.55;30.29;95989.31;6164222;28;109306;-59
2023/12/19 10:46:54;;;;;;;20.07;18.17;;;;;;;21.56;29.97;95990.09;6164316;28;109038;-59
2023/12/19 10:49:59;;;;;;;18.33;16.73;;;;;;;21.55;30.40;95980.50;6163008;28;109148;-58
2023/12/19 10:53:05;;;;;;;18.00;16.40;;;;;;;21.51;30.48;95964.31;6153981;28;109091;-56
2023/12/19 10:56:10;;;;;;;18.13;16.63;;;;;;;21.54;30.03;95961.09;6164289;28;109119;-58
2023/12/19 10:59:22;;;;;;;17.60;16.10;;;;;;;21.53;30.04;95959.50;6164454;28;108871;-59
2023/12/19 11:02:36;;;;;;;17.57;16.13;;;;;;;21.55;30.07;95956.56;6158112;28;109387;-59
2023/12/19 11:05:42;;;;;;;16.63;15.20;;;;;;;21.56;30.49;95947.47;6163692;28;110379;-58
2023/12/19 11:08:50;;;;;;;17.30;15.70;;;;;;;21.57;30.39;95946.41;6163777;28;109133;-58
2023/12/19 11:11:54;;;;;;;18.23;16.63;;;;;;;21.59;30.09;95936.25;6164262;28;109232;-58
2023/12/19 11:14:57;;;;;;;17.90;16.20;;;;;;;21.62;29.94;95927.72;6153198;28;110023;-58
2023/12/19 11:18:07;;;;;;;17.60;16.00;;;;;;;21.67;29.90;95917.78;6163274;28;109316;-58
2023/12/19 11:21:18;;;;;;;17.70;16.10;;;;;;;21.63;30.28;95915.97;6162369;28;109000;-58
2023/12/19 11:24:28;;;;;;;16.83;15.33;;;;;;;21.61;30.36;95910.94;6163620;28;110015;-58
2023/12/19 11:27:37;;;;;;;18.07;16.37;;;;;;;21.67;30.48;95903.69;6155031;28;109104;-57
2023/12/19 11:30:41;;;;;;;17.03;15.53;;;;;;;21.67;30.01;95898.34;6163304;28;110341;-57
2023/12/19 11:33:45;;;;;;;15.57;14.10;;;;;;;21.65;30.67;95887.19;6163539;28;110017;-57
2023/12/19 11:37:02;;;;;;;16.40;13.93;;;;;;;21.59;30.47;95886.44;6152559;28;109045;-58
2023/12/19 11:40:08;;;;;;;17.27;15.67;;;;;;;21.59;30.70;95880.34;6163416;28;110130;-58
2023/12/19 11:43:12;;;;;;;17.30;15.80;;;;;;;21.59;30.73;95885.66;6163497;28;109827;-59
2023/12/19 11:46:18;;;;;;;16.53;14.93;;;;;;;21.55;30.63;95877.44;6163240;28;110042;-58
2023/12/19 11:49:37;;;;;;;16.47;14.97;;;;;;;21.56;31.03;95878.25;6152224;28;109180;-58
2023/12/19 11:52:42;;;;;;;15.60;14.20;;;;;;;21.56;30.59;95867.59;6162264;28;109015;-58
2023/12/19 11:55:46;;;;;;;16.13;14.70;;;;;;;21.54;30.78;95875.06;6162725;28;109116;-58
2023/12/19 11:58:51;;;;;;;15.83;14.40;;;;;;;21.50;30.87;95867.63;6157852;28;109058;-57
2023/12/19 12:01:54;;;;;;;16.03;14.53;;;;;;;21.52;31.09;95867.34;6156909;28;109582;-57
2023/12/19 12:05:08;;;;;;;14.43;13.03;;;;;;;21.50;30.68;95866.81;6162272;28;109354;-57
2023/12/19 12:08:14;;;;;;;15.13;13.70;;;;;;;21.48;30.89;95861.78;6161570;28;109066;-57
2023/12/19 12:11:18;;;;;;;15.67;14.27;;;;;;;21.47;30.96;95868.19;6152207;28;109981;-57
2023/12/19 12:14:22;;;;;;;13.27;12.17;;;;;;;21.47;30.64;95859.41;6162444;28;109214;-58
2023/12/19 12:17:29;;;;;;;15.50;14.07;;;;;;;21.45;30.96;95862.34;6162740;28;110070;-57
2023/12/19 12:20:34;;;;;;;15.57;14.13;;;;;;;21.45;30.90;95859.69;6161894;28;109802;-58
2023/12/19 12:23:39;;;;;;;15.23;13.73;;;;;;;21.44;30.71;95860.75;6126873;28;110171;-58
2023/12/19 12:26:42;;;;;;;14.70;13.40;;;;;;;21.43;30.86;95851.19;6146262;28;109393;-58
2023/12/19 12:29:45;;;;;;;15.23;13.70;;;;;;;21.43;30.72;95845.88;6162046;28;110030;-58
2023/12/19 12:32:48;;;;;;;15.47;14.17;;;;;;;21.44;30.80;95836.78;6156448;28;109150;-58
2023/12/19 12:35:52;;;;;;;15.77;14.37;;;;;;;21.44;30.91;95834.13;6155964;28;109243;-58
2023/12/19 12:38:56;;;;;;;14.67;13.37;;;;;;;21.44;30.87;95826.16;6161631;28;109414;-59
2023/12/19 12:42:03;;;;;;;14.33;13.03;;;;;;;21.45;30.78;95825.06;6161193;28;109441;-58
2023/12/19 12:45:08;;;;;;;14.60;13.10;;;;;;;21.45;30.85;95819.75;6151745;28;109098;-58
2023/12/19 12:48:14;;;;;;;14.70;13.40;;;;;;;21.45;30.86;95819.75;6161602;28;109228;-59
2023/12/19 12:51:18;;;;;;;14.37;13.13;;;;;;;21.46;31.03;95812.56;6161555;28;109331;-63
2023/12/19 12:54:22;;;;;;;15.60;14.13;;;;;;;21.44;31.01;95807.50;6161268;28;110259;-62
2023/12/19 12:57:26;;;;;;;14.70;13.30;;;;;;;21.46;30.88;95799.22;6150531;28;109094;-62
2023/12/19 13:00:29;;;;;;;14.37;13.07;;;;;;;21.45;31.14;95800.31;6161488;28;109208;-62
2023/12/19 13:03:33;;;;;;;13.77;12.57;;;;;;;21.45;30.74;95801.09;6161088;28;109136;-76
2023/12/19 13:06:37;;;;;;;14.20;12.90;;;;;;;21.49;30.78;95798.66;6161479;28;109697;-68
2023/12/19 13:09:46;;;;;;;13.50;12.20;;;;;;;21.55;30.92;95796.75;6155019;28;110377;-62
2023/12/19 13:12:49;;;;;;;15.57;14.07;;;;;;;21.50;31.14;95798.38;6161479;28;109229;-62
2023/12/19 13:15:53;;;;;;;14.83;13.43;;;;;;;21.48;31.38;95797.88;6161518;28;109267;-62
2023/12/19 13:18:56;;;;;;;14.80;13.47;;;;;;;21.44;31.42;95794.19;6151084;28;109332;-61
2023/12/19 13:21:59;;;;;;;14.60;13.30;;;;;;;21.43;31.58;95784.63;6160575;28;109017;-61
2023/12/19 13:25:05;;;;;;;13.57;12.27;;;;;;;21.41;31.41;95783.31;6160194;28;109256;-62
2023/12/19 13:28:09;;;;;;;14.40;13.10;;;;;;;21.42;31.36;95782.25;6160989;28;111025;-63
2023/12/19 13:31:12;;;;;;;14.93;13.57;;;;;;;21.42;31.61;95783.03;6150093;28;109059;-62
2023/12/19 13:34:15;;;;;;;14.40;13.10;;;;;;;21.42;31.59;95788.38;6161037;28;109780;-61
2023/12/19 13:37:18;;;;;;;13.97;12.77;;;;;;;21.43;31.33;95787.28;6160522;28;109051;-62
2023/12/19 13:40:23;;;;;;;14.60;13.30;;;;;;;21.42;31.13;95783.03;6160434;28;109378;-61
2023/12/19 13:43:26;;;;;;;14.37;12.97;;;;;;;21.42;31.54;95776.91;6149699;28;109058;-61
2023/12/19 13:46:29;;;;;;;14.57;13.27;;;;;;;21.44;30.96;95775.56;6160782;28;109083;-61
2023/12/19 13:49:32;;;;;;;14.47;13.27;;;;;;;21.44;31.50;95775.56;6160330;28;109229;-61
2023/12/19 13:52:37;;;;;;;14.40;13.00;;;;;;;21.42;31.13;95777.72;6154580;28;110115;-60
2023/12/19 13:55:42;;;;;;;14.40;13.10;;;;;;;21.42;31.33;95775.03;6155095;28;110817;-61
2023/12/19 13:58:45;;;;;;;14.27;12.97;;;;;;;21.41;31.32;95760.16;6160384;28;109305;-61